createdAt,value
2019-01-21T00:00:32.109Z,-3.70
2019-01-21T00:03:01.318Z,-3.60
2019-01-21T00:07:58.101Z,-3.60
2019-01-21T00:10:26.653Z,-3.70
2019-01-21T00:12:55.293Z,-3.60
2019-01-21T00:15:26.632Z,-3.50
2019-01-21T00:17:55.514Z,-3.50
2019-01-21T00:20:26.612Z,-3.50
2019-01-21T00:25:24.341Z,-3.60
2019-01-21T00:27:53.252Z,-3.60
2019-01-21T00:30:23.260Z,-3.60
2019-01-21T00:32:51.766Z,-3.70
2019-01-21T00:37:51.361Z,-3.70
2019-01-21T00:40:20.113Z,-3.70
2019-01-21T00:42:48.597Z,-3.70
2019-01-21T00:45:17.216Z,-3.70
2019-01-21T00:47:45.732Z,-3.70
2019-01-21T00:50:14.642Z,-3.60
2019-01-21T00:52:43.258Z,-3.70
2019-01-21T00:55:13.511Z,-3.60
2019-01-21T00:57:42.076Z,-3.50
2019-01-21T01:00:19.390Z,-3.50
2019-01-21T01:02:48.073Z,-3.60
2019-01-21T01:07:46.145Z,-3.60
2019-01-21T01:10:14.779Z,-3.60
2019-01-21T01:12:43.606Z,-3.50
2019-01-21T01:15:13.829Z,-3.60
2019-01-21T01:17:42.337Z,-3.60
2019-01-21T01:20:13.524Z,-3.60
2019-01-21T01:25:11.045Z,-3.50
2019-01-21T01:27:39.534Z,-3.50
2019-01-21T01:30:13.574Z,-3.60
2019-01-21T01:32:42.099Z,-3.50
2019-01-21T01:35:12.028Z,-3.50
2019-01-21T01:37:41.090Z,-3.60
2019-01-21T01:40:14.738Z,-3.60
2019-01-21T01:45:19.022Z,-3.80
2019-01-21T01:47:50.495Z,-3.80
2019-01-21T01:50:19.067Z,-3.80
2019-01-21T01:52:47.829Z,-3.80
2019-01-21T01:55:16.407Z,-3.70
2019-01-21T01:57:45.068Z,-3.70
2019-01-21T02:00:15.713Z,-3.80
2019-01-21T02:02:44.291Z,-3.80
2019-01-21T02:05:12.912Z,-3.80
2019-01-21T02:07:41.533Z,-3.90
2019-01-21T02:10:13.500Z,-3.90
2019-01-21T02:12:42.914Z,-3.90
2019-01-21T02:15:14.656Z,-3.90
2019-01-21T02:20:15.471Z,-3.80
2019-01-21T02:22:46.004Z,-3.80
2019-01-21T02:25:14.957Z,-3.80
2019-01-21T02:27:53.815Z,-3.80
2019-01-21T02:30:43.550Z,-3.80
2019-01-21T02:33:30.375Z,-3.80
2019-01-21T02:38:51.193Z,-3.80
2019-01-21T02:41:25.907Z,-3.60
2019-01-21T02:44:04.732Z,-3.60
2019-01-21T02:46:42.849Z,-3.80
2019-01-21T02:49:29.481Z,-3.90
2019-01-21T02:52:22.093Z,-3.90
2019-01-21T02:55:00.952Z,-3.90
2019-01-21T02:57:38.399Z,-3.90
2019-01-21T03:00:10.115Z,-3.80
2019-01-21T03:02:46.538Z,-3.80
2019-01-21T03:05:51.225Z,-3.80
2019-01-21T03:08:32.207Z,-3.70
2019-01-21T03:11:09.736Z,-3.80
2019-01-21T03:13:44.310Z,-3.90
2019-01-21T03:16:21.426Z,-3.90
2019-01-21T03:19:16.049Z,-3.90
2019-01-21T03:22:16.352Z,-3.70
2019-01-21T03:24:59.738Z,-3.60
2019-01-21T03:27:53.714Z,-3.70
2019-01-21T03:31:01.953Z,-3.90
2019-01-21T03:33:51.523Z,-3.90
2019-01-21T03:36:52.299Z,-3.90
2019-01-21T03:39:43.262Z,-3.90
2019-01-21T03:42:21.802Z,-3.90
2019-01-21T03:44:56.205Z,-3.80
2019-01-21T03:47:36.756Z,-3.80
2019-01-21T03:50:29.670Z,-3.70
2019-01-21T03:53:01.274Z,-3.80
2019-01-21T03:55:30.493Z,-3.90
2019-01-21T03:58:17.223Z,-4.10
2019-01-21T04:01:05.369Z,-4.10
2019-01-21T04:04:08.731Z,-4.10
2019-01-21T04:06:40.340Z,-4.00
2019-01-21T04:09:29.471Z,-4.00
2019-01-21T04:12:04.129Z,-4.00
2019-01-21T04:14:55.647Z,-4.10
2019-01-21T04:17:36.590Z,-4.20
2019-01-21T04:20:20.572Z,-4.20
2019-01-21T04:23:23.655Z,-4.20
2019-01-21T04:26:09.969Z,-4.40
2019-01-21T04:28:41.610Z,-4.40
2019-01-21T04:31:15.685Z,-4.70
2019-01-21T04:33:47.322Z,-4.60
2019-01-21T04:36:25.723Z,-4.60
2019-01-21T04:38:57.768Z,-4.60
2019-01-21T04:41:38.177Z,-4.70
2019-01-21T04:44:30.638Z,-4.70
2019-01-21T04:47:35.487Z,-4.70
2019-01-21T04:50:31.290Z,-4.60
2019-01-21T04:53:26.713Z,-4.60
2019-01-21T04:56:01.035Z,-4.50
2019-01-21T04:58:50.617Z,-4.50
2019-01-21T05:01:22.195Z,-4.40
2019-01-21T05:04:06.009Z,-4.30
2019-01-21T05:06:53.916Z,-4.20
2019-01-21T05:09:34.259Z,-4.30
2019-01-21T05:12:26.996Z,-4.40
2019-01-21T05:15:09.310Z,-4.30
2019-01-21T05:17:46.755Z,-4.20
2019-01-21T05:20:34.550Z,-4.30
2019-01-21T05:23:24.455Z,-4.30
2019-01-21T05:26:02.038Z,-4.40
2019-01-21T05:28:48.770Z,-4.50
2019-01-21T05:31:37.074Z,-4.60
2019-01-21T05:34:42.321Z,-4.60
2019-01-21T05:37:39.990Z,-4.60
2019-01-21T05:43:05.947Z,-4.90
2019-01-21T05:45:52.751Z,-4.90
2019-01-21T05:48:33.304Z,-4.90
2019-01-21T05:51:27.702Z,-4.70
2019-01-21T05:56:40.548Z,-4.60
2019-01-21T05:59:21.042Z,-4.70
2019-01-21T06:02:07.443Z,-4.80
2019-01-21T06:04:54.384Z,-4.80
2019-01-21T06:12:46.507Z,-4.90
2019-01-21T06:18:01.089Z,-4.90
2019-01-21T06:23:16.967Z,-4.90
2019-01-21T06:28:26.371Z,-4.80
2019-01-21T06:31:13.087Z,-4.90
2019-01-21T06:34:36.383Z,-4.90
2019-01-21T06:37:33.664Z,-4.90
2019-01-21T06:40:38.649Z,-5.00
2019-01-21T06:43:16.349Z,-5.10
2019-01-21T06:45:55.371Z,-5.10
2019-01-21T06:48:29.414Z,-5.10
2019-01-21T06:51:06.778Z,-5.10
2019-01-21T06:53:57.835Z,-5.10
2019-01-21T06:57:02.807Z,-5.10
2019-01-21T07:00:24.417Z,-5.20
2019-01-21T07:03:35.909Z,-5.20
2019-01-21T07:06:29.940Z,-5.30
2019-01-21T07:09:20.651Z,-5.30
2019-01-21T07:12:08.171Z,-5.20
2019-01-21T07:15:13.211Z,-5.20
2019-01-21T07:18:07.241Z,-5.20
2019-01-21T07:20:42.433Z,-5.20
2019-01-21T07:23:19.895Z,-5.30
2019-01-21T07:26:03.231Z,-5.20
2019-01-21T07:28:40.950Z,-5.20
2019-01-21T07:31:18.120Z,-5.20
2019-01-21T07:34:06.164Z,-5.20
2019-01-21T07:36:49.103Z,-5.20
2019-01-21T07:39:23.448Z,-5.10
2019-01-21T07:41:57.851Z,-5.10
2019-01-21T07:44:32.395Z,-5.10
2019-01-21T07:47:15.896Z,-5.10
2019-01-21T07:50:17.130Z,-5.10
2019-01-21T07:53:08.035Z,-5.00
2019-01-21T07:55:56.333Z,-5.10
2019-01-21T07:58:36.637Z,-5.10
2019-01-21T08:01:11.176Z,-5.10
2019-01-21T08:03:59.296Z,-5.10
2019-01-21T08:06:30.882Z,-5.20
2019-01-21T08:09:08.377Z,-5.20
2019-01-21T08:14:41.519Z,-5.10
2019-01-21T08:17:22.105Z,-5.00
2019-01-21T08:20:09.022Z,-5.00
2019-01-21T08:25:44.897Z,-4.90
2019-01-21T08:28:22.426Z,-4.90
2019-01-21T08:31:03.849Z,-4.80
2019-01-21T08:33:41.159Z,-4.80
2019-01-21T08:38:54.177Z,-4.80
2019-01-21T08:41:46.994Z,-4.80
2019-01-21T08:47:15.147Z,-4.90
2019-01-21T09:02:24.240Z,-4.70
2019-01-21T09:04:58.651Z,-4.70
2019-01-21T09:07:54.319Z,-4.60
2019-01-21T09:10:53.807Z,-4.60
2019-01-21T09:16:09.888Z,-4.70
2019-01-21T09:29:15.151Z,-4.70
2019-01-21T09:32:04.117Z,-4.70
2019-01-21T09:42:33.550Z,-4.50
2019-01-21T09:45:11.104Z,-4.40
2019-01-21T09:47:38.522Z,-4.40
2019-01-21T09:52:37.783Z,-4.40
2019-01-21T09:55:07.581Z,-4.40
2019-01-21T10:00:07.531Z,-4.30
2019-01-21T10:02:37.749Z,-4.30
2019-01-21T10:05:08.886Z,-4.30
2019-01-21T10:07:40.557Z,-4.20
2019-01-21T10:10:42.027Z,-4.10
2019-01-21T10:13:28.451Z,-4.10
2019-01-21T10:16:11.772Z,-4.00
2019-01-21T10:19:04.332Z,-4.00
2019-01-21T10:21:53.885Z,-4.00
2019-01-21T10:24:42.435Z,-4.10
2019-01-21T10:27:25.513Z,-4.10
2019-01-21T10:32:44.377Z,-4.00
2019-01-21T10:35:27.953Z,-4.00
2019-01-21T10:38:34.469Z,-3.90
2019-01-21T10:44:02.738Z,-3.90
2019-01-21T10:46:34.343Z,-3.90
2019-01-21T10:49:20.807Z,-3.90
2019-01-21T10:52:04.192Z,-3.90
2019-01-21T10:54:35.776Z,-3.80
2019-01-21T10:57:22.490Z,-3.70
2019-01-21T11:02:26.819Z,-3.80
2019-01-21T11:04:58.368Z,-3.80
2019-01-21T11:07:30.536Z,-3.80
2019-01-21T11:10:29.584Z,-3.70
2019-01-21T11:13:06.631Z,-3.70
2019-01-21T11:15:38.189Z,-3.70
2019-01-21T11:18:18.643Z,-3.70
2019-01-21T11:20:53.054Z,-3.60
2019-01-21T11:23:42.787Z,-3.70
2019-01-21T11:26:29.283Z,-3.60
2019-01-21T11:29:03.600Z,-3.60
2019-01-21T11:31:41.173Z,-3.70
2019-01-21T11:34:29.197Z,-3.80
2019-01-21T11:37:00.806Z,-3.90
2019-01-21T11:39:43.950Z,-4.00
2019-01-21T11:45:18.869Z,-3.60
2019-01-21T11:47:54.694Z,-3.60
2019-01-21T11:50:38.695Z,-3.60
2019-01-21T11:53:19.111Z,-3.70
2019-01-21T11:55:56.337Z,-3.80
2019-01-21T11:58:33.926Z,-3.80
2019-01-21T12:14:19.751Z,-3.40
2019-01-21T12:17:21.092Z,-3.40
2019-01-21T12:30:11.469Z,-3.20
2019-01-21T12:43:26.094Z,-3.40
2019-01-21T12:51:11.305Z,-3.40
2019-01-21T12:56:33.580Z,-3.30
2019-01-21T13:09:31.737Z,-3.20
2019-01-21T13:22:28.466Z,-3.20
2019-01-21T13:25:30.803Z,-3.20
2019-01-21T13:28:20.787Z,-3.20
2019-01-21T13:39:11.348Z,-3.20
2019-01-21T13:41:42.910Z,-3.10
2019-01-21T13:44:14.488Z,-3.10
2019-01-21T13:54:54.541Z,-3.20
2019-01-21T14:10:06.272Z,-3.10
2019-01-21T14:15:22.083Z,-2.70
2019-01-21T14:18:12.999Z,-2.60
2019-01-21T14:23:41.072Z,-2.50
2019-01-21T14:44:18.376Z,-2.60
2019-01-21T14:47:18.836Z,-2.80
2019-01-21T14:54:50.334Z,-2.90
2019-01-21T14:57:30.659Z,-2.80
2019-01-21T15:02:54.546Z,-3.10
2019-01-21T15:05:31.962Z,-3.10
2019-01-21T15:13:11.470Z,-3.20
2019-01-21T15:18:21.611Z,-3.10
2019-01-21T15:26:27.618Z,-3.20
2019-01-21T15:42:20.687Z,-2.80
2019-01-21T15:47:43.111Z,-3.00
2019-01-21T15:50:20.252Z,-2.90
2019-01-21T16:03:11.672Z,-3.20
2019-01-21T16:18:34.702Z,-3.10
2019-01-21T16:23:41.781Z,-3.20
2019-01-21T16:28:41.571Z,-3.10
2019-01-21T16:38:48.419Z,-3.00
2019-01-21T16:41:42.511Z,-2.90
2019-01-21T16:44:11.167Z,-2.70
2019-01-21T16:54:05.062Z,-3.30
2019-01-21T16:56:33.672Z,-3.40
2019-01-21T17:03:58.935Z,-3.30
2019-01-21T17:06:27.418Z,-3.20
2019-01-21T17:08:55.887Z,-3.30
2019-01-21T17:21:17.319Z,-3.30
2019-01-21T17:23:45.891Z,-3.20
2019-01-21T17:41:03.869Z,-3.10
2019-01-21T17:43:33.268Z,-3.00
2019-01-21T17:46:01.860Z,-3.10
2019-01-21T17:48:30.324Z,-3.20
2019-01-21T18:03:19.674Z,-3.40
2019-01-21T18:10:44.820Z,-3.40
2019-01-21T18:13:13.328Z,-3.40
2019-01-21T18:25:34.754Z,-3.40
2019-01-21T18:28:03.319Z,-3.40
2019-01-21T18:30:31.948Z,-3.40
2019-01-21T18:37:57.499Z,-2.90
2019-01-21T18:47:54.282Z,-3.10
2019-01-21T18:55:19.974Z,-3.10
2019-01-21T19:12:40.194Z,-3.20
2019-01-21T19:42:34.438Z,-3.30
2019-01-21T19:45:03.415Z,-3.30
2019-01-21T19:52:28.664Z,-3.30
2019-01-21T19:54:57.150Z,-3.20
2019-01-21T20:02:22.039Z,-3.50
2019-01-21T20:04:50.540Z,-3.50
2019-01-21T20:09:47.269Z,-3.50
2019-01-21T20:24:37.528Z,-3.40
2019-01-21T20:41:55.655Z,-3.40
2019-01-21T20:44:24.501Z,-3.20
2019-01-21T20:54:17.419Z,-3.30
2019-01-21T20:56:45.925Z,-3.30
2019-01-21T20:59:14.417Z,-3.30
2019-01-21T21:04:11.618Z,-3.40
2019-01-21T21:14:05.150Z,-3.60
2019-01-21T21:19:02.109Z,-3.50
2019-01-21T21:23:58.787Z,-3.50
2019-01-21T21:36:20.533Z,-3.30
2019-01-21T21:38:49.322Z,-3.30
2019-01-21T21:43:46.397Z,-3.30
2019-01-21T21:46:14.960Z,-3.20
2019-01-21T21:48:43.528Z,-3.20
2019-01-21T21:58:36.884Z,-3.60
2019-01-21T22:01:05.684Z,-3.60
2019-01-21T22:06:02.816Z,-3.60
2019-01-21T22:10:59.801Z,-3.50
2019-01-21T22:23:21.256Z,-3.30
2019-01-21T22:25:50.079Z,-3.40
2019-01-21T22:35:43.623Z,-3.30
2019-01-21T22:43:08.597Z,-3.50
2019-01-21T22:55:31.065Z,-3.20
2019-01-21T23:00:42.272Z,-3.30
2019-01-21T23:03:11.380Z,-3.30
2019-01-21T23:10:36.690Z,-3.40
2019-01-21T23:13:05.439Z,-3.40
2019-01-21T23:18:04.354Z,-3.50
2019-01-21T23:20:32.728Z,-3.50
2019-01-21T23:25:29.381Z,-3.30
2019-01-21T23:35:23.092Z,-3.40
2019-01-21T23:37:52.297Z,-3.20
2019-01-21T23:40:20.858Z,-3.10
2019-01-21T23:42:49.362Z,-3.10
2019-01-21T23:47:46.090Z,-3.10
2019-01-21T23:52:43.635Z,-3.10
2019-01-21T23:55:13.739Z,-3.10
2019-01-21T23:57:42.276Z,-3.20
